createdAt,value
2019-05-10T00:01:10.590Z,15.48
2019-05-10T00:03:59.434Z,15.44
2019-05-10T00:06:48.572Z,15.40
2019-05-10T00:09:18.882Z,15.36
2019-05-10T00:12:15.318Z,15.33
2019-05-10T00:14:52.059Z,15.33
2019-05-10T00:17:23.902Z,15.30
2019-05-10T00:19:55.137Z,15.29
2019-05-10T00:22:26.452Z,15.27
2019-05-10T00:25:04.432Z,15.23
2019-05-10T00:27:30.820Z,15.21
2019-05-10T00:30:02.127Z,15.20
2019-05-10T00:32:34.817Z,15.19
2019-05-10T00:35:06.582Z,15.20
2019-05-10T00:37:37.867Z,15.20
2019-05-10T00:40:09.260Z,15.22
2019-05-10T00:42:40.669Z,15.21
2019-05-10T00:45:12.023Z,15.20
2019-05-10T00:47:43.299Z,15.16
2019-05-10T00:50:14.663Z,15.14
2019-05-10T00:52:45.967Z,15.12
2019-05-10T00:55:19.251Z,15.09
2019-05-10T00:57:50.433Z,15.04
2019-05-10T01:00:22.215Z,15.00
2019-05-10T01:02:53.422Z,14.98
2019-05-10T01:05:24.861Z,14.95
2019-05-10T01:07:56.221Z,14.94
2019-05-10T01:10:27.533Z,14.92
2019-05-10T01:12:58.903Z,14.91
2019-05-10T01:15:30.133Z,14.91
2019-05-10T01:18:01.510Z,14.89
2019-05-10T01:20:32.791Z,14.91
2019-05-10T01:23:04.046Z,14.92
2019-05-10T01:25:36.005Z,14.94
2019-05-10T01:28:07.393Z,14.97
2019-05-10T01:30:38.741Z,14.98
2019-05-10T01:33:10.057Z,14.97
2019-05-10T01:35:41.351Z,14.95
2019-05-10T01:38:12.561Z,14.96
2019-05-10T01:40:43.845Z,14.98
2019-05-10T01:43:15.078Z,15.00
2019-05-10T01:45:46.344Z,15.01
2019-05-10T01:48:17.584Z,14.99
2019-05-10T01:50:48.911Z,14.99
2019-05-10T01:53:20.212Z,14.98
2019-05-10T01:55:52.932Z,14.98
2019-05-10T01:58:25.593Z,14.98
2019-05-10T02:00:56.880Z,15.01
2019-05-10T02:03:28.198Z,15.03
2019-05-10T02:06:00.410Z,15.02
2019-05-10T02:08:31.676Z,15.02
2019-05-10T02:11:03.318Z,15.05
2019-05-10T02:13:34.630Z,15.06
2019-05-10T02:16:05.979Z,15.09
2019-05-10T02:18:37.357Z,15.10
2019-05-10T02:21:08.625Z,15.09
2019-05-10T02:23:39.851Z,15.08
2019-05-10T02:26:11.179Z,15.07
2019-05-10T02:28:42.484Z,15.02
2019-05-10T02:31:13.756Z,14.97
2019-05-10T02:33:45.074Z,14.94
2019-05-10T02:36:16.376Z,14.88
2019-05-10T02:38:47.747Z,14.87
2019-05-10T02:41:18.991Z,14.84
2019-05-10T02:43:50.279Z,14.80
2019-05-10T02:46:21.613Z,14.78
2019-05-10T02:48:53.040Z,14.77
2019-05-10T02:51:24.297Z,14.75
2019-05-10T02:53:55.493Z,14.70
2019-05-10T02:56:30.855Z,14.65
2019-05-10T02:59:00.213Z,14.61
2019-05-10T03:01:31.738Z,14.58
2019-05-10T03:04:03.104Z,14.52
2019-05-10T03:06:38.343Z,14.43
2019-05-10T03:09:09.898Z,14.39
2019-05-10T03:11:47.464Z,14.36
2019-05-10T03:14:19.826Z,14.30
2019-05-10T03:16:52.334Z,14.24
2019-05-10T03:19:24.003Z,14.23
2019-05-10T03:22:06.168Z,14.21
2019-05-10T03:24:38.506Z,14.23
2019-05-10T03:27:09.826Z,14.20
2019-05-10T03:29:41.267Z,14.21
2019-05-10T03:32:12.752Z,14.19
2019-05-10T03:34:44.001Z,14.19
2019-05-10T03:37:15.334Z,14.20
2019-05-10T03:39:46.555Z,14.19
2019-05-10T03:42:18.958Z,14.21
2019-05-10T03:44:50.177Z,14.19
2019-05-10T03:47:21.404Z,14.18
2019-05-10T03:49:52.672Z,14.20
2019-05-10T03:52:23.909Z,14.18
2019-05-10T03:54:55.185Z,14.19
2019-05-10T03:57:26.442Z,14.17
2019-05-10T03:59:57.792Z,14.16
2019-05-10T04:02:29.057Z,14.15
2019-05-10T04:05:00.360Z,14.14
2019-05-10T04:07:32.699Z,14.12
2019-05-10T04:10:03.960Z,14.10
2019-05-10T04:12:35.690Z,14.10
2019-05-10T04:15:08.227Z,14.04
2019-05-10T04:17:39.504Z,14.03
2019-05-10T04:20:10.940Z,14.04
2019-05-10T04:22:42.232Z,14.03
2019-05-10T04:25:13.596Z,14.02
2019-05-10T04:27:44.934Z,14.00
2019-05-10T04:30:16.574Z,13.93
2019-05-10T04:32:47.845Z,13.88
2019-05-10T04:35:19.175Z,13.81
2019-05-10T04:37:50.661Z,13.78
2019-05-10T04:40:21.992Z,13.76
2019-05-10T04:42:53.279Z,13.73
2019-05-10T04:45:24.715Z,13.73
2019-05-10T04:47:55.999Z,13.73
2019-05-10T04:50:27.258Z,13.71
2019-05-10T04:52:58.518Z,13.68
2019-05-10T04:55:29.853Z,13.67
2019-05-10T04:58:01.164Z,13.67
2019-05-10T05:00:32.462Z,13.68
2019-05-10T05:03:05.370Z,13.66
2019-05-10T05:05:36.672Z,13.63
2019-05-10T05:08:07.938Z,13.63
2019-05-10T05:10:39.286Z,13.64
2019-05-10T05:13:10.549Z,13.65
2019-05-10T05:15:41.857Z,13.66
2019-05-10T05:18:13.219Z,13.68
2019-05-10T05:20:44.511Z,13.69
2019-05-10T05:23:15.804Z,13.72
2019-05-10T05:25:47.071Z,13.72
2019-05-10T05:28:23.040Z,13.77
2019-05-10T05:30:51.343Z,13.76
2019-05-10T05:33:22.676Z,13.78
2019-05-10T05:35:53.975Z,13.79
2019-05-10T05:38:25.279Z,13.77
2019-05-10T05:40:56.577Z,13.76
2019-05-10T05:43:27.893Z,13.78
2019-05-10T05:45:59.125Z,13.81
2019-05-10T05:48:40.115Z,13.80
2019-05-10T05:51:03.424Z,13.82
2019-05-10T05:53:35.867Z,13.82
2019-05-10T05:56:12.635Z,13.85
2019-05-10T05:58:44.782Z,13.87
2019-05-10T06:01:24.935Z,13.88
2019-05-10T06:03:46.825Z,13.89
2019-05-10T06:06:21.968Z,13.89
2019-05-10T06:08:54.590Z,13.93
2019-05-10T06:11:29.654Z,13.93
2019-05-10T06:14:03.711Z,13.92
2019-05-10T06:16:31.263Z,13.92
2019-05-10T06:19:02.561Z,13.92
2019-05-10T06:21:33.847Z,13.93
2019-05-10T06:24:07.558Z,13.91
2019-05-10T06:26:38.059Z,13.91
2019-05-10T06:29:16.139Z,13.90
2019-05-10T06:31:42.297Z,13.91
2019-05-10T06:34:13.618Z,13.90
2019-05-10T06:36:45.087Z,13.92
2019-05-10T06:39:16.377Z,13.92
2019-05-10T06:41:50.243Z,13.94
2019-05-10T06:44:24.893Z,13.97
2019-05-10T06:46:53.885Z,13.99
2019-05-10T06:49:25.175Z,14.02
2019-05-10T06:51:56.482Z,14.03
2019-05-10T06:54:27.785Z,14.05
2019-05-10T06:56:59.192Z,14.06
2019-05-10T06:59:30.570Z,14.05
2019-05-10T07:02:01.889Z,14.04
2019-05-10T07:04:37.922Z,14.03
2019-05-10T07:07:09.704Z,14.03
2019-05-10T07:10:01.418Z,14.05
2019-05-10T07:12:15.321Z,14.08
2019-05-10T07:14:46.410Z,14.14
2019-05-10T07:17:18.033Z,14.15
2019-05-10T07:19:53.578Z,14.19
2019-05-10T07:22:27.114Z,14.20
2019-05-10T07:24:57.154Z,14.23
2019-05-10T07:27:29.154Z,14.25
2019-05-10T07:30:00.470Z,14.28
2019-05-10T07:32:31.735Z,14.32
2019-05-10T07:35:03.193Z,14.36
2019-05-10T07:37:34.501Z,14.42
2019-05-10T07:40:06.391Z,14.50
2019-05-10T07:42:39.649Z,14.52
2019-05-10T07:45:10.910Z,14.54
2019-05-10T07:47:42.295Z,14.59
2019-05-10T07:50:13.678Z,14.66
2019-05-10T07:52:45.668Z,14.72
2019-05-10T07:55:28.086Z,14.75
2019-05-10T07:57:50.325Z,14.81
2019-05-10T08:00:25.326Z,14.81
2019-05-10T08:03:06.390Z,14.84
2019-05-10T08:05:29.456Z,14.86
2019-05-10T08:08:00.947Z,14.89
2019-05-10T08:10:32.266Z,14.96
2019-05-10T08:13:03.775Z,15.05
2019-05-10T08:15:35.301Z,15.14
2019-05-10T08:18:09.613Z,15.16
2019-05-10T08:20:49.335Z,15.23
2019-05-10T08:23:17.850Z,15.30
2019-05-10T08:25:47.195Z,15.36
2019-05-10T08:28:18.636Z,15.38
2019-05-10T08:30:53.467Z,15.40
2019-05-10T08:33:23.020Z,15.46
2019-05-10T08:36:00.511Z,15.54
2019-05-10T08:38:28.203Z,15.63
2019-05-10T08:40:59.508Z,15.72
2019-05-10T08:43:38.872Z,15.76
2019-05-10T08:46:03.799Z,15.75
2019-05-10T08:48:38.203Z,15.76
2019-05-10T08:51:08.066Z,15.78
2019-05-10T08:53:41.891Z,15.80
2019-05-10T08:56:13.693Z,15.83
2019-05-10T08:58:45.227Z,15.85
2019-05-10T09:01:26.793Z,15.85
2019-05-10T09:03:55.611Z,15.87
2019-05-10T09:06:22.599Z,15.87
2019-05-10T09:09:01.831Z,15.88
2019-05-10T09:11:26.904Z,15.90
2019-05-10T09:13:58.368Z,15.94
2019-05-10T09:16:39.355Z,15.98
2019-05-10T09:19:02.744Z,16.04
2019-05-10T09:21:34.515Z,16.14
2019-05-10T09:24:06.576Z,16.17
2019-05-10T09:26:38.077Z,16.23
2019-05-10T09:29:09.349Z,16.29
2019-05-10T09:31:45.894Z,16.33
2019-05-10T09:34:13.539Z,16.39
2019-05-10T09:36:46.970Z,16.41
2019-05-10T09:39:21.771Z,16.43
2019-05-10T09:41:52.758Z,16.42
2019-05-10T09:44:23.767Z,16.39
2019-05-10T09:46:55.060Z,16.36
2019-05-10T09:49:27.444Z,16.28
2019-05-10T09:51:58.727Z,16.21
2019-05-10T09:54:33.544Z,16.16
2019-05-10T09:57:03.077Z,16.12
2019-05-10T09:59:34.328Z,16.12
2019-05-10T10:02:14.660Z,16.14
2019-05-10T10:04:38.688Z,16.17
2019-05-10T10:07:09.981Z,16.19
2019-05-10T10:09:44.667Z,16.18
2019-05-10T10:12:14.316Z,16.18
2019-05-10T10:14:47.297Z,16.16
2019-05-10T10:17:20.594Z,16.15
2019-05-10T10:19:51.724Z,16.13
2019-05-10T10:22:22.990Z,16.12
2019-05-10T10:24:56.833Z,16.09
2019-05-10T10:27:34.225Z,16.08
2019-05-10T10:30:00.165Z,16.04
2019-05-10T10:32:34.821Z,16.02
2019-05-10T10:35:04.597Z,16.02
2019-05-10T10:37:37.955Z,16.04
2019-05-10T10:40:09.183Z,16.00
2019-05-10T10:42:40.519Z,16.04
2019-05-10T10:45:12.016Z,16.02
2019-05-10T10:47:43.584Z,16.08
2019-05-10T10:50:17.208Z,16.18
2019-05-10T10:52:48.736Z,16.29
2019-05-10T10:55:19.998Z,16.39
2019-05-10T10:57:51.313Z,16.46
2019-05-10T11:00:33.012Z,16.51
2019-05-10T11:03:05.770Z,16.47
2019-05-10T11:05:37.080Z,16.47
2019-05-10T11:08:10.994Z,16.48
2019-05-10T11:10:43.019Z,16.51
2019-05-10T11:13:23.729Z,16.48
2019-05-10T11:15:48.419Z,16.45
2019-05-10T11:18:21.648Z,16.42
2019-05-10T11:20:54.075Z,16.44
2019-05-10T11:23:34.211Z,16.40
2019-05-10T11:25:58.514Z,16.30
2019-05-10T11:28:38.481Z,16.26
2019-05-10T11:31:02.962Z,16.30
2019-05-10T11:33:34.179Z,16.32
2019-05-10T11:36:08.681Z,16.39
2019-05-10T11:38:38.466Z,16.41
2019-05-10T11:41:13.617Z,16.47
2019-05-10T11:43:42.724Z,16.51
2019-05-10T11:46:14.052Z,16.56
2019-05-10T11:48:45.291Z,16.67
2019-05-10T11:51:17.606Z,16.80
2019-05-10T11:53:55.498Z,16.85
2019-05-10T11:56:27.376Z,16.89
2019-05-10T11:58:56.046Z,16.85
2019-05-10T12:01:27.295Z,16.83
2019-05-10T12:03:58.662Z,16.83
2019-05-10T12:06:31.987Z,16.86
2019-05-10T12:09:04.736Z,16.88
2019-05-10T12:11:43.822Z,16.96
2019-05-10T12:14:13.601Z,17.07
2019-05-10T12:16:42.348Z,17.19
2019-05-10T12:19:19.943Z,17.27
2019-05-10T12:21:46.675Z,17.30
2019-05-10T12:24:39.027Z,17.26
2019-05-10T12:27:14.424Z,17.24
2019-05-10T12:29:24.070Z,17.09
2019-05-10T12:31:56.975Z,17.00
2019-05-10T12:34:30.979Z,16.83
2019-05-10T12:37:03.777Z,16.69
2019-05-10T12:39:34.519Z,16.63
2019-05-10T12:42:05.815Z,16.59
2019-05-10T12:44:38.889Z,16.56
2019-05-10T12:47:11.392Z,16.56
2019-05-10T12:49:42.708Z,16.59
2019-05-10T12:52:16.081Z,16.64
2019-05-10T12:54:46.968Z,16.67
2019-05-10T12:57:18.259Z,16.71
2019-05-10T12:59:49.585Z,16.85
2019-05-10T13:02:20.913Z,16.95
2019-05-10T13:04:52.872Z,17.07
2019-05-10T13:07:25.211Z,17.10
2019-05-10T13:10:03.864Z,17.11
2019-05-10T13:12:29.516Z,17.16
2019-05-10T13:15:00.795Z,17.30
2019-05-10T13:17:32.099Z,17.50
2019-05-10T13:20:03.516Z,17.62
2019-05-10T13:22:37.783Z,17.81
2019-05-10T13:25:07.879Z,18.10
2019-05-10T13:27:40.298Z,18.37
2019-05-10T13:30:12.752Z,18.52
2019-05-10T13:32:44.078Z,18.58
2019-05-10T13:35:16.387Z,18.69
2019-05-10T13:37:47.794Z,18.91
2019-05-10T13:40:19.257Z,19.05
2019-05-10T13:42:50.532Z,19.28
2019-05-10T13:45:21.994Z,19.39
2019-05-10T13:47:53.286Z,19.58
2019-05-10T13:50:24.609Z,19.80
2019-05-10T13:52:55.961Z,19.95
2019-05-10T13:55:27.261Z,19.95
2019-05-10T13:57:58.581Z,20.03
2019-05-10T14:00:34.407Z,20.16
2019-05-10T14:03:04.832Z,20.27
2019-05-10T14:05:39.785Z,20.38
2019-05-10T14:08:09.627Z,20.56
2019-05-10T14:10:40.926Z,20.86
2019-05-10T14:13:16.224Z,21.07
2019-05-10T14:15:45.156Z,21.07
2019-05-10T14:18:16.404Z,21.02
2019-05-10T14:20:47.743Z,21.00
2019-05-10T14:23:18.995Z,20.95
2019-05-10T14:25:50.301Z,20.85
2019-05-10T14:28:22.579Z,20.72
2019-05-10T14:30:57.414Z,20.55
2019-05-10T14:33:26.837Z,20.33
2019-05-10T14:36:00.887Z,20.17
2019-05-10T14:38:31.130Z,20.08
2019-05-10T14:41:10.209Z,20.09
2019-05-10T14:43:35.494Z,20.11
2019-05-10T14:46:13.558Z,20.08
2019-05-10T14:48:39.801Z,20.21
2019-05-10T14:51:13.615Z,20.51
2019-05-10T14:53:44.110Z,20.98
2019-05-10T14:56:15.461Z,21.68
2019-05-10T14:58:46.773Z,21.95
2019-05-10T15:01:18.180Z,21.90
2019-05-10T15:03:49.633Z,22.24
2019-05-10T15:06:20.871Z,22.49
2019-05-10T15:08:52.311Z,22.58
2019-05-10T15:11:26.529Z,22.54
2019-05-10T15:13:57.261Z,22.93
2019-05-10T15:16:30.862Z,23.54
2019-05-10T15:19:02.405Z,23.98
2019-05-10T15:21:34.632Z,23.94
2019-05-10T15:24:06.256Z,23.54
2019-05-10T15:26:43.735Z,22.99
2019-05-10T15:29:14.870Z,22.37
2019-05-10T15:31:43.549Z,21.90
2019-05-10T15:34:14.853Z,21.48
2019-05-10T15:36:46.216Z,21.12
2019-05-10T15:39:17.519Z,20.65
2019-05-10T15:41:53.506Z,20.35
2019-05-10T15:44:30.155Z,20.12
2019-05-10T15:46:55.809Z,19.78
2019-05-10T15:49:27.118Z,19.42
2019-05-10T15:52:16.291Z,19.20
2019-05-10T15:54:31.471Z,18.99
2019-05-10T15:57:02.810Z,18.88
2019-05-10T15:59:34.125Z,18.78
2019-05-10T16:02:05.640Z,18.73
2019-05-10T16:04:36.926Z,18.66
2019-05-10T16:07:09.256Z,18.56
2019-05-10T16:09:41.540Z,18.55
2019-05-10T16:12:13.127Z,18.61
2019-05-10T16:14:45.756Z,18.67
2019-05-10T16:17:23.351Z,18.70
2019-05-10T16:19:59.707Z,18.79
2019-05-10T16:22:30.335Z,18.79
2019-05-10T16:25:01.355Z,18.80
2019-05-10T16:27:33.858Z,18.79
2019-05-10T16:30:05.106Z,18.74
2019-05-10T16:32:36.456Z,18.66
2019-05-10T16:35:12.793Z,18.50
2019-05-10T16:37:40.811Z,18.38
2019-05-10T16:40:13.609Z,18.28
2019-05-10T16:42:47.873Z,18.23
2019-05-10T16:45:19.429Z,18.17
2019-05-10T16:47:50.775Z,18.09
2019-05-10T16:50:26.117Z,17.97
2019-05-10T16:52:59.443Z,17.85
2019-05-10T16:55:28.087Z,17.74
2019-05-10T16:57:59.356Z,17.69
2019-05-10T17:00:30.640Z,17.67
2019-05-10T17:03:01.904Z,17.60
2019-05-10T17:05:33.309Z,17.49
2019-05-10T17:08:04.564Z,17.40
2019-05-10T17:10:35.980Z,17.35
2019-05-10T17:13:07.408Z,17.35
2019-05-10T17:15:41.693Z,17.31
2019-05-10T17:18:17.802Z,17.25
2019-05-10T17:20:50.856Z,17.17
2019-05-10T17:23:18.948Z,17.14
2019-05-10T17:25:50.226Z,17.07
2019-05-10T17:28:21.561Z,17.03
2019-05-10T17:30:52.798Z,17.00
2019-05-10T17:33:24.210Z,16.95
2019-05-10T17:36:07.572Z,16.95
2019-05-10T17:38:31.619Z,16.94
2019-05-10T17:41:02.550Z,16.91
2019-05-10T17:43:33.891Z,16.91
2019-05-10T17:46:05.377Z,16.91
2019-05-10T17:48:40.869Z,16.85
2019-05-10T17:51:09.754Z,16.79
2019-05-10T17:53:41.009Z,16.75
2019-05-10T17:56:12.470Z,16.74
2019-05-10T17:58:43.854Z,16.74
2019-05-10T18:01:15.177Z,16.74
2019-05-10T18:03:46.491Z,16.74
2019-05-10T18:06:23.953Z,16.71
2019-05-10T18:08:50.864Z,16.72
2019-05-10T18:11:22.224Z,16.71
2019-05-10T18:13:53.649Z,16.69
2019-05-10T18:16:25.629Z,16.69
2019-05-10T18:18:56.968Z,16.67
2019-05-10T18:21:28.378Z,16.66
2019-05-10T18:23:59.860Z,16.62
2019-05-10T18:26:34.096Z,16.60
2019-05-10T18:29:04.172Z,16.59
2019-05-10T18:31:35.533Z,16.59
2019-05-10T18:34:06.855Z,16.56
2019-05-10T18:36:50.936Z,16.54
2019-05-10T18:39:15.535Z,16.54
2019-05-10T18:41:46.504Z,16.51
2019-05-10T18:44:17.158Z,16.49
2019-05-10T18:46:48.408Z,16.45
2019-05-10T18:49:19.727Z,16.42
2019-05-10T18:51:50.975Z,16.41
2019-05-10T18:54:22.314Z,16.40
2019-05-10T18:56:53.625Z,16.38
2019-05-10T18:59:24.897Z,16.38
2019-05-10T19:01:56.153Z,16.37
2019-05-10T19:04:27.473Z,16.36
2019-05-10T19:07:09.244Z,16.32
2019-05-10T19:09:32.017Z,16.28
2019-05-10T19:12:03.530Z,16.21
2019-05-10T19:14:35.139Z,16.15
2019-05-10T19:17:09.429Z,16.11
2019-05-10T19:19:42.163Z,16.02
2019-05-10T19:22:12.550Z,15.96
2019-05-10T19:24:43.955Z,15.87
2019-05-10T19:27:15.315Z,15.72
2019-05-10T19:29:48.024Z,15.63
2019-05-10T19:32:20.296Z,15.52
2019-05-10T19:34:57.325Z,15.46
2019-05-10T19:37:31.368Z,15.39
2019-05-10T19:39:57.851Z,15.31
2019-05-10T19:42:31.611Z,15.24
2019-05-10T19:45:02.177Z,15.23
2019-05-10T19:47:34.772Z,15.23
2019-05-10T19:50:06.441Z,15.19
2019-05-10T19:52:37.748Z,15.14
2019-05-10T19:55:13.203Z,15.12
2019-05-10T19:57:42.499Z,15.10
2019-05-10T20:00:13.788Z,15.07
2019-05-10T20:02:45.087Z,15.02
2019-05-10T20:05:16.424Z,14.98
2019-05-10T20:07:47.834Z,14.88
2019-05-10T20:10:19.193Z,14.85
2019-05-10T20:12:50.509Z,14.80
2019-05-10T20:15:21.805Z,14.77
2019-05-10T20:17:53.152Z,14.76
2019-05-10T20:20:24.502Z,14.77
2019-05-10T20:22:55.877Z,14.79
2019-05-10T20:25:27.303Z,14.81
2019-05-10T20:27:58.800Z,14.81
2019-05-10T20:30:30.241Z,14.80
2019-05-10T20:33:01.578Z,14.79
2019-05-10T20:35:33.015Z,14.80
2019-05-10T20:38:04.480Z,14.82
2019-05-10T20:40:37.297Z,14.84
2019-05-10T20:43:08.789Z,14.85
2019-05-10T20:45:40.091Z,14.88
2019-05-10T20:48:11.334Z,14.89
2019-05-10T20:50:42.746Z,14.90
2019-05-10T20:53:14.089Z,14.91
2019-05-10T20:55:45.413Z,14.90
2019-05-10T20:58:16.787Z,14.93
2019-05-10T21:00:48.169Z,14.93
2019-05-10T21:03:19.489Z,14.96
2019-05-10T21:05:50.773Z,14.97
2019-05-10T21:08:22.044Z,14.99
2019-05-10T21:10:53.393Z,15.00
2019-05-10T21:13:24.769Z,15.01
2019-05-10T21:15:56.057Z,15.03
2019-05-10T21:18:27.492Z,15.05
2019-05-10T21:20:58.769Z,15.06
2019-05-10T21:23:30.036Z,15.05
2019-05-10T21:26:01.350Z,15.06
2019-05-10T21:28:33.018Z,15.03
2019-05-10T21:31:04.365Z,15.02
2019-05-10T21:33:35.684Z,15.01
2019-05-10T21:36:06.994Z,15.00
2019-05-10T21:38:41.476Z,14.99
2019-05-10T21:41:11.313Z,14.97
2019-05-10T21:43:42.567Z,14.95
2019-05-10T21:46:13.911Z,14.93
2019-05-10T21:48:45.182Z,14.91
2019-05-10T21:51:16.464Z,14.90
2019-05-10T21:53:47.730Z,14.89
2019-05-10T21:56:19.033Z,14.87
2019-05-10T21:58:50.332Z,14.86
2019-05-10T22:01:21.695Z,14.84
2019-05-10T22:03:52.977Z,14.82
2019-05-10T22:06:24.252Z,14.80
2019-05-10T22:08:55.531Z,14.78
2019-05-10T22:11:26.840Z,14.78
2019-05-10T22:13:59.238Z,14.76
2019-05-10T22:16:30.548Z,14.74
2019-05-10T22:19:03.117Z,14.74
2019-05-10T22:21:34.420Z,14.73
2019-05-10T22:24:05.844Z,14.71
2019-05-10T22:26:37.186Z,14.69
2019-05-10T22:29:08.438Z,14.69
2019-05-10T22:31:39.759Z,14.66
2019-05-10T22:34:12.016Z,14.64
2019-05-10T22:36:43.378Z,14.62
2019-05-10T22:39:14.678Z,14.59
2019-05-10T22:41:45.908Z,14.59
2019-05-10T22:44:17.227Z,14.59
2019-05-10T22:46:48.454Z,14.57
2019-05-10T22:49:19.752Z,14.57
2019-05-10T22:51:51.144Z,14.56
2019-05-10T22:54:22.449Z,14.54
2019-05-10T22:56:53.715Z,14.54
2019-05-10T22:59:25.080Z,14.52
2019-05-10T23:01:56.444Z,14.52
2019-05-10T23:04:27.696Z,14.51
2019-05-10T23:06:58.930Z,14.50
2019-05-10T23:09:30.229Z,14.47
2019-05-10T23:12:01.540Z,14.45
2019-05-10T23:14:32.771Z,14.44
2019-05-10T23:17:04.130Z,14.42
2019-05-10T23:19:35.357Z,14.41
2019-05-10T23:22:06.628Z,14.39
2019-05-10T23:24:39.323Z,14.37
2019-05-10T23:27:10.630Z,14.36
2019-05-10T23:29:41.984Z,14.34
2019-05-10T23:32:13.254Z,14.30
2019-05-10T23:34:44.566Z,14.27
2019-05-10T23:37:15.858Z,14.24
2019-05-10T23:39:47.100Z,14.23
2019-05-10T23:42:18.383Z,14.19
2019-05-10T23:44:49.706Z,14.16
2019-05-10T23:47:20.974Z,14.14
2019-05-10T23:49:52.262Z,14.10
2019-05-10T23:52:23.634Z,14.07
2019-05-10T23:54:54.866Z,14.05
2019-05-10T23:57:26.107Z,14.01
2019-05-10T23:59:57.465Z,13.96
